Time;durP1;ratioP1;P1;durP2;ratioP2;P2;SDS_P1;SDS_P2;PMS_P1;PMS_P2;Temp;Humidity;BMP_temperature;BMP_pressure;BME280_temperature;BME280_humidity;BME280_pressure;Samples;Min_cycle;Max_cycle;Signal;HPM_P1;HPM_P2
2022/03/05 00:19:28;;;;;;;4.65;1.65;;;;;;;;;;5011078;28;20517;-81
2022/03/05 00:21:59;;;;;;;5.57;1.55;;;;;;;;;;5000394;28;20060;-81
2022/03/05 00:24:28;;;;;;;4.90;1.83;;;;;;;;;;5016841;28;20058;-81
2022/03/05 00:26:59;;;;;;;4.22;1.80;;;;;;;;;;5006686;28;20054;-81
2022/03/05 00:29:26;;;;;;;4.68;1.70;;;;;;;;;;5018907;28;20531;-80
2022/03/05 00:31:54;;;;;;;3.50;1.60;;;;;;;;;;5017124;28;20107;-82
2022/03/05 00:34:22;;;;;;;5.35;2.00;;;;;;;;;;5014799;28;20042;-82
2022/03/05 00:36:50;;;;;;;4.85;1.85;;;;;;;;;;5013055;28;20045;-80
2022/03/05 00:39:18;;;;;;;4.53;2.03;;;;;;;;;;5005791;28;20077;-81
2022/03/05 00:41:46;;;;;;;3.13;1.50;;;;;;;;;;5018991;28;20049;-81
2022/03/05 00:44:14;;;;;;;3.10;1.60;;;;;;;;;;5020093;28;20042;-81
2022/03/05 01:42:02;;;;;;;2.58;1.52;;;;;;;;;;4995466;28;20043;-82
2022/03/05 01:44:30;;;;;;;7.00;1.83;;;;;;;;;;4995106;28;20785;-82
2022/03/05 02:09:24;;;;;;;5.03;1.58;;;;;;;;;;4993798;28;20493;-81
2022/03/05 02:11:52;;;;;;;4.35;1.42;;;;;;;;;;4979727;28;20046;-80
2022/03/05 03:09:48;;;;;;;8.68;1.60;;;;;;;;;;4993949;28;20068;-80
2022/03/05 03:12:16;;;;;;;6.00;1.52;;;;;;;;;;4985013;28;20467;-80
2022/03/05 05:21:30;;;;;;;3.00;1.58;;;;;;;;;;5012031;28;20390;-81
2022/03/05 05:23:58;;;;;;;4.10;1.55;;;;;;;;;;5010515;28;20052;-81
2022/03/05 06:08:50;;;;;;;3.45;1.63;;;;;;;;;;5000596;28;20034;-89
2022/03/05 06:11:18;;;;;;;5.93;1.80;;;;;;;;;;5000051;28;20050;-81
2022/03/05 06:13:46;;;;;;;7.22;2.22;;;;;;;;;;4962334;28;20050;-81
2022/03/05 06:16:14;;;;;;;5.38;1.90;;;;;;;;;;4962281;28;20058;-81
2022/03/05 06:18:42;;;;;;;13.48;1.90;;;;;;;;;;4998150;28;20054;-81
2022/03/05 06:21:10;;;;;;;4.90;1.92;;;;;;;;;;4980098;28;20046;-81
2022/03/05 06:23:38;;;;;;;3.70;2.10;;;;;;;;;;4975241;28;20046;-82
2022/03/05 06:26:20;;;;;;;4.38;1.90;;;;;;;;;;4989880;28;20057;-81
2022/03/05 06:28:48;;;;;;;8.40;2.35;;;;;;;;;;4976636;28;20043;-81
2022/03/05 06:31:16;;;;;;;9.13;2.33;;;;;;;;;;4992544;28;20581;-81
2022/03/05 06:33:44;;;;;;;7.30;2.10;;;;;;;;;;4994419;28;20054;-80
2022/03/05 06:36:12;;;;;;;8.50;2.45;;;;;;;;;;4996041;28;20046;-82
2022/03/05 06:38:44;;;;;;;7.00;2.35;;;;;;;;;;4998796;28;20061;-81
2022/03/05 06:41:12;;;;;;;5.10;2.40;;;;;;;;;;4959726;28;20047;-81
2022/03/05 06:43:40;;;;;;;3.72;1.88;;;;;;;;;;4992785;28;20050;-82
2022/03/05 06:46:08;;;;;;;6.38;2.47;;;;;;;;;;4994811;28;20046;-82
2022/03/05 06:48:46;;;;;;;11.45;2.65;;;;;;;;;;4977941;28;20534;-81
2022/03/05 06:51:14;;;;;;;4.90;2.20;;;;;;;;;;4994465;28;20497;-81
2022/03/05 06:53:42;;;;;;;4.93;2.28;;;;;;;;;;4996906;28;20375;-82
2022/03/05 06:56:10;;;;;;;7.68;2.35;;;;;;;;;;4988572;28;20051;-81
2022/03/05 06:58:53;;;;;;;9.07;2.95;;;;;;;;;;4959580;28;20054;-81
2022/03/05 07:01:22;;;;;;;9.55;3.10;;;;;;;;;;4974591;28;20050;-81
2022/03/05 07:03:56;;;;;;;6.22;3.33;;;;;;;;;;4994718;28;20042;-83
2022/03/05 07:06:38;;;;;;;5.60;2.15;;;;;;;;;;4982002;28;20054;-82
2022/03/05 07:09:06;;;;;;;6.15;2.38;;;;;;;;;;4994418;28;20057;-84
2022/03/05 07:11:59;;;;;;;6.75;2.40;;;;;;;;;;4979453;28;20101;-84
2022/03/05 07:14:44;;;;;;;7.68;2.80;;;;;;;;;;4982218;28;20062;-84
2022/03/05 07:17:26;;;;;;;5.13;2.47;;;;;;;;;;5005168;28;20608;-84
2022/03/05 07:19:55;;;;;;;6.57;2.60;;;;;;;;;;4964016;28;20054;-83
2022/03/05 07:22:22;;;;;;;4.30;2.50;;;;;;;;;;5006629;28;20133;-82
2022/03/05 07:24:50;;;;;;;4.20;2.30;;;;;;;;;;5023308;28;20045;-83
2022/03/05 07:27:18;;;;;;;2.35;1.50;;;;;;;;;;5019237;28;20077;-82
2022/03/05 07:29:46;;;;;;;5.10;2.00;;;;;;;;;;5015227;28;20057;-82
2022/03/05 07:32:14;;;;;;;11.23;3.10;;;;;;;;;;5019739;28;20054;-82
2022/03/05 07:34:42;;;;;;;6.15;2.83;;;;;;;;;;5015620;28;20495;-81
2022/03/05 07:37:10;;;;;;;5.07;2.60;;;;;;;;;;5016939;28;20045;-82
2022/03/05 07:39:38;;;;;;;6.35;3.17;;;;;;;;;;5014836;28;20049;-82
2022/03/05 07:42:07;;;;;;;6.97;3.10;;;;;;;;;;5021616;28;20041;-83
2022/03/05 07:44:52;;;;;;;7.82;3.42;;;;;;;;;;4998891;28;20516;-84
2022/03/05 07:48:01;;;;;;;7.07;3.25;;;;;;;;;;4965193;28;20050;-83
2022/03/05 07:50:42;;;;;;;6.93;2.67;;;;;;;;;;4970885;28;20086;-83
2022/03/05 07:53:10;;;;;;;7.47;3.53;;;;;;;;;;4956309;28;20047;-84
2022/03/05 07:55:40;;;;;;;7.40;3.50;;;;;;;;;;4962162;28;20486;-83
2022/03/05 07:58:10;;;;;;;5.03;2.25;;;;;;;;;;4975874;28;20062;-82
2022/03/05 08:00:38;;;;;;;6.13;2.30;;;;;;;;;;4956734;28;20178;-83
2022/03/05 08:03:06;;;;;;;5.32;2.50;;;;;;;;;;4974623;28;20106;-82
2022/03/05 08:05:34;;;;;;;5.22;2.78;;;;;;;;;;4956319;28;20051;-82
2022/03/05 08:08:02;;;;;;;9.02;3.42;;;;;;;;;;4959982;28;20055;-83
2022/03/05 08:10:30;;;;;;;6.53;3.88;;;;;;;;;;4959221;28;20078;-82
2022/03/05 08:12:58;;;;;;;8.98;3.67;;;;;;;;;;4954963;28;20083;-81
2022/03/05 08:15:26;;;;;;;4.15;2.22;;;;;;;;;;4972657;28;20146;-81
2022/03/05 08:18:03;;;;;;;9.57;3.35;;;;;;;;;;4959067;28;20071;-81
2022/03/05 08:20:31;;;;;;;8.18;3.85;;;;;;;;;;5015306;28;20061;-81
2022/03/05 08:22:59;;;;;;;8.80;2.70;;;;;;;;;;5018312;28;20049;-83
2022/03/05 08:25:28;;;;;;;6.78;3.22;;;;;;;;;;5004809;28;20050;-81
2022/03/05 08:28:36;;;;;;;6.60;2.55;;;;;;;;;;5017701;28;20080;-84
2022/03/05 08:31:57;;;;;;;7.75;3.15;;;;;;;;;;5011416;28;20057;-84
2022/03/05 08:34:40;;;;;;;8.90;4.03;;;;;;;;;;4998834;28;20053;-81
2022/03/05 08:37:08;;;;;;;9.30;3.08;;;;;;;;;;5012329;28;20112;-81
2022/03/05 08:39:36;;;;;;;8.80;3.40;;;;;;;;;;4994940;28;20045;-82
2022/03/05 08:42:04;;;;;;;8.70;2.85;;;;;;;;;;5015616;28;20065;-80
2022/03/05 08:44:32;;;;;;;6.60;2.70;;;;;;;;;;5018576;28;20104;-82
2022/03/05 08:47:00;;;;;;;6.60;3.28;;;;;;;;;;5021992;28;20054;-82
2022/03/05 08:49:29;;;;;;;10.55;3.67;;;;;;;;;;5013341;28;20057;-84
2022/03/05 08:51:59;;;;;;;9.88;3.03;;;;;;;;;;5017436;28;20129;-84
2022/03/05 08:54:28;;;;;;;8.35;4.15;;;;;;;;;;5016772;28;20048;-84
2022/03/05 08:56:56;;;;;;;7.35;3.20;;;;;;;;;;5009601;28;20049;-84
2022/03/05 08:59:24;;;;;;;8.27;3.90;;;;;;;;;;5017942;28;20478;-84
2022/03/05 09:01:52;;;;;;;11.48;3.85;;;;;;;;;;5005720;28;20096;-83
2022/03/05 09:04:20;;;;;;;9.60;4.03;;;;;;;;;;5015028;28;20045;-85
2022/03/05 09:06:48;;;;;;;12.88;3.33;;;;;;;;;;5021019;28;20049;-82
2022/03/05 09:09:16;;;;;;;11.38;4.00;;;;;;;;;;4989042;28;20076;-83
2022/03/05 09:11:44;;;;;;;9.25;3.50;;;;;;;;;;5019261;28;20046;-85
2022/03/05 09:14:12;;;;;;;7.85;3.63;;;;;;;;;;4997784;28;20053;-82
2022/03/05 09:16:41;;;;;;;7.85;3.55;;;;;;;;;;4984913;28;20383;-83
2022/03/05 09:19:09;;;;;;;11.85;4.88;;;;;;;;;;5015537;28;20119;-84
2022/03/05 09:21:36;;;;;;;6.57;3.50;;;;;;;;;;4981324;28;20054;-84
2022/03/05 09:24:05;;;;;;;6.90;3.53;;;;;;;;;;5018984;28;20473;-83
2022/03/05 09:26:32;;;;;;;11.77;3.75;;;;;;;;;;5014723;28;20069;-84
2022/03/05 09:29:00;;;;;;;4.78;2.63;;;;;;;;;;5000248;28;20045;-84
2022/03/05 09:31:28;;;;;;;9.85;3.55;;;;;;;;;;5017880;28;20054;-83
2022/03/05 09:33:56;;;;;;;8.85;3.95;;;;;;;;;;4984879;28;20057;-84
2022/03/05 09:36:24;;;;;;;10.65;4.22;;;;;;;;;;5014954;28;20061;-84
2022/03/05 09:38:52;;;;;;;8.63;3.92;;;;;;;;;;5015301;28;20128;-83
2022/03/05 09:41:21;;;;;;;8.15;3.58;;;;;;;;;;4981081;28;20351;-83
2022/03/05 09:43:50;;;;;;;11.82;4.22;;;;;;;;;;4999557;28;20092;-83
2022/03/05 09:46:19;;;;;;;7.47;3.65;;;;;;;;;;5013744;28;20046;-82
2022/03/05 09:48:46;;;;;;;7.60;3.53;;;;;;;;;;5016255;28;20073;-82
2022/03/05 09:51:14;;;;;;;11.48;4.30;;;;;;;;;;5018272;28;20053;-83
2022/03/05 09:53:43;;;;;;;7.20;3.28;;;;;;;;;;5013916;28;20605;-83
2022/03/05 09:56:10;;;;;;;9.60;4.63;;;;;;;;;;5014441;28;20058;-85
2022/03/05 09:58:47;;;;;;;9.20;4.43;;;;;;;;;;5024097;28;20054;-83
2022/03/05 10:01:15;;;;;;;9.15;3.50;;;;;;;;;;5024917;28;20567;-84
2022/03/05 10:03:47;;;;;;;8.52;3.90;;;;;;;;;;5031530;28;20093;-84
2022/03/05 10:06:22;;;;;;;4.65;2.85;;;;;;;;;;5020644;28;20057;-85
2022/03/05 10:08:55;;;;;;;11.50;4.03;;;;;;;;;;5008502;28;20551;-85
2022/03/05 10:11:23;;;;;;;8.63;3.88;;;;;;;;;;5017969;28;20081;-84
2022/03/05 10:13:50;;;;;;;12.75;5.18;;;;;;;;;;5005381;28;20054;-83
2022/03/05 10:16:25;;;;;;;8.35;4.13;;;;;;;;;;5001671;28;20968;-84
2022/03/05 10:18:58;;;;;;;10.32;4.28;;;;;;;;;;5017452;28;20096;-84
2022/03/05 10:21:32;;;;;;;6.63;3.35;;;;;;;;;;5023585;28;20057;-84
2022/03/05 10:24:05;;;;;;;8.90;4.15;;;;;;;;;;5014332;28;20041;-82
2022/03/05 10:26:56;;;;;;;9.07;4.18;;;;;;;;;;5035636;28;20081;-82
2022/03/05 10:29:34;;;;;;;13.43;4.30;;;;;;;;;;5033521;28;20041;-82
2022/03/05 10:32:10;;;;;;;7.10;3.15;;;;;;;;;;5018124;28;20041;-83
2022/03/05 10:34:41;;;;;;;10.20;4.30;;;;;;;;;;5020629;28;20438;-83
2022/03/05 10:37:10;;;;;;;12.40;4.10;;;;;;;;;;5023140;28;20053;-83
2022/03/05 10:39:38;;;;;;;6.00;3.50;;;;;;;;;;5023300;28;20073;-82
2022/03/05 10:42:23;;;;;;;8.13;3.95;;;;;;;;;;5015938;28;20435;-82
2022/03/05 10:45:00;;;;;;;8.02;3.70;;;;;;;;;;5008809;28;20050;-81
2022/03/05 10:47:39;;;;;;;8.05;3.20;;;;;;;;;;5024665;28;20050;-82
2022/03/05 10:50:18;;;;;;;6.28;2.97;;;;;;;;;;5017901;28;20061;-85
2022/03/05 10:52:54;;;;;;;10.48;3.50;;;;;;;;;;5004044;28;20643;-85
2022/03/05 10:55:25;;;;;;;6.43;2.97;;;;;;;;;;5015872;28;20058;-82
2022/03/05 10:58:06;;;;;;;7.90;3.92;;;;;;;;;;4990936;28;20521;-80
2022/03/05 11:00:34;;;;;;;9.45;4.05;;;;;;;;;;5017407;28;20060;-81
2022/03/05 11:03:02;;;;;;;11.48;5.05;;;;;;;;;;5017585;28;20041;-80
2022/03/05 11:05:31;;;;;;;7.70;4.32;;;;;;;;;;5016810;28;20077;-79
2022/03/05 11:07:59;;;;;;;8.25;3.80;;;;;;;;;;5014738;28;20064;-80
2022/03/05 11:10:29;;;;;;;6.60;3.67;;;;;;;;;;5016642;28;20053;-81
2022/03/05 11:12:59;;;;;;;7.47;3.10;;;;;;;;;;5020172;28;20062;-81
2022/03/05 11:15:27;;;;;;;7.40;3.40;;;;;;;;;;5018821;28;20125;-85
2022/03/05 11:17:54;;;;;;;6.88;2.80;;;;;;;;;;5009873;28;20096;-85
2022/03/05 11:20:22;;;;;;;9.30;4.13;;;;;;;;;;5014816;28;20050;-85
2022/03/05 11:22:51;;;;;;;6.55;3.40;;;;;;;;;;5008979;28;20409;-85
2022/03/05 11:25:22;;;;;;;9.05;3.05;;;;;;;;;;4994907;28;20085;-80
2022/03/05 11:28:04;;;;;;;5.20;3.03;;;;;;;;;;5000254;28;20066;-80
2022/03/05 11:30:41;;;;;;;7.93;3.45;;;;;;;;;;4995832;28;20057;-80
2022/03/05 11:33:32;;;;;;;10.13;4.25;;;;;;;;;;5012500;28;20517;-80
2022/03/05 11:36:21;;;;;;;8.65;3.10;;;;;;;;;;5018184;28;20060;-79
2022/03/05 11:38:48;;;;;;;9.30;2.88;;;;;;;;;;5004024;28;20123;-81
2022/03/05 11:41:19;;;;;;;7.32;3.33;;;;;;;;;;5014349;28;20050;-80
2022/03/05 11:43:47;;;;;;;8.38;2.33;;;;;;;;;;4975912;28;20111;-80
2022/03/05 11:46:27;;;;;;;6.78;3.05;;;;;;;;;;5002967;28;20054;-79
2022/03/05 11:49:02;;;;;;;5.25;2.75;;;;;;;;;;4994722;28;20136;-81
2022/03/05 11:51:31;;;;;;;6.28;2.88;;;;;;;;;;5011606;28;20160;-83
2022/03/05 11:54:05;;;;;;;9.27;3.80;;;;;;;;;;4995689;28;21275;-82
2022/03/05 11:57:14;;;;;;;6.45;3.30;;;;;;;;;;5018804;28;20552;-82
2022/03/05 11:59:51;;;;;;;5.85;3.35;;;;;;;;;;5014173;28;20122;-81
2022/03/05 12:02:47;;;;;;;6.13;3.00;;;;;;;;;;5019894;28;20575;-82
2022/03/05 12:05:32;;;;;;;10.43;4.10;;;;;;;;;;5012960;28;20050;-84
2022/03/05 12:08:00;;;;;;;;;;;;;;;;;;5012338;28;20123;-83
2022/03/05 12:10:28;;;;;;;6.22;3.10;;;;;;;;;;4997385;28;20060;-83
2022/03/05 12:12:58;;;;;;;7.72;3.75;;;;;;;;;;4995710;28;20077;-84
2022/03/05 12:15:27;;;;;;;11.25;3.80;;;;;;;;;;5012213;28;20046;-83
2022/03/05 12:17:54;;;;;;;8.13;3.38;;;;;;;;;;5014190;28;20102;-84
2022/03/05 12:20:26;;;;;;;6.97;4.07;;;;;;;;;;5014343;28;20133;-83
2022/03/05 12:23:01;;;;;;;8.77;4.07;;;;;;;;;;5013532;28;20054;-83
2022/03/05 12:25:31;;;;;;;7.70;3.92;;;;;;;;;;5013475;28;20100;-83
2022/03/05 12:28:00;;;;;;;10.00;4.00;;;;;;;;;;5011089;28;20068;-85
2022/03/05 12:30:32;;;;;;;7.68;3.60;;;;;;;;;;5010184;28;20049;-78
2022/03/05 12:33:02;;;;;;;7.10;4.18;;;;;;;;;;5015994;28;20045;-80
2022/03/05 12:35:31;;;;;;;10.73;3.75;;;;;;;;;;5011784;28;20061;-79
2022/03/05 12:37:59;;;;;;;10.00;3.72;;;;;;;;;;4989292;28;20051;-80
2022/03/05 12:40:31;;;;;;;9.95;3.55;;;;;;;;;;5009078;28;20202;-78
2022/03/05 12:43:00;;;;;;;9.82;3.83;;;;;;;;;;5017123;28;20048;-79
2022/03/05 12:45:30;;;;;;;8.95;4.38;;;;;;;;;;5009073;28;20132;-80
2022/03/05 12:48:00;;;;;;;6.97;3.58;;;;;;;;;;5006806;28;20540;-79
2022/03/05 12:50:36;;;;;;;6.03;3.80;;;;;;;;;;5015601;28;20064;-80
2022/03/05 12:53:13;;;;;;;7.47;3.90;;;;;;;;;;5011031;28;20153;-78
2022/03/05 12:55:56;;;;;;;9.85;3.88;;;;;;;;;;5013064;28;20058;-79
2022/03/05 12:58:26;;;;;;;5.50;3.28;;;;;;;;;;5003202;28;20398;-79
2022/03/05 13:01:01;;;;;;;7.68;3.55;;;;;;;;;;5016367;28;20065;-83
2022/03/05 13:03:31;;;;;;;7.93;3.53;;;;;;;;;;5019211;28;20042;-84
2022/03/05 13:05:59;;;;;;;6.68;3.80;;;;;;;;;;5021192;28;20138;-84
2022/03/05 13:08:28;;;;;;;8.60;4.03;;;;;;;;;;5017674;28;20056;-83
2022/03/05 13:11:09;;;;;;;8.77;3.90;;;;;;;;;;5001589;28;20050;-84
2022/03/05 13:13:38;;;;;;;8.70;3.50;;;;;;;;;;5015239;28;20049;-83
2022/03/05 13:16:08;;;;;;;7.55;3.92;;;;;;;;;;5005039;28;20637;-79
2022/03/05 13:18:37;;;;;;;8.45;3.80;;;;;;;;;;5010371;28;20140;-80
2022/03/05 13:21:08;;;;;;;4.57;2.22;;;;;;;;;;4995161;28;20049;-79
2022/03/05 13:23:38;;;;;;;7.80;3.83;;;;;;;;;;4970952;28;20126;-79
2022/03/05 13:26:07;;;;;;;6.63;3.90;;;;;;;;;;5010729;28;20065;-84
2022/03/05 13:28:34;;;;;;;9.93;4.35;;;;;;;;;;5019747;28;20066;-84
2022/03/05 13:31:04;;;;;;;7.53;4.03;;;;;;;;;;5018815;28;20141;-80
2022/03/05 13:33:39;;;;;;;7.85;3.88;;;;;;;;;;5016347;28;20072;-85
2022/03/05 13:36:15;;;;;;;11.48;3.70;;;;;;;;;;5010926;28;20053;-83
2022/03/05 13:38:43;;;;;;;6.68;3.67;;;;;;;;;;5008730;28;20442;-85
2022/03/05 13:41:13;;;;;;;9.57;4.30;;;;;;;;;;5012818;28;20092;-85
2022/03/05 13:43:41;;;;;;;6.18;3.60;;;;;;;;;;5011573;28;20046;-85
2022/03/05 13:46:09;;;;;;;7.20;3.85;;;;;;;;;;5013174;28;20077;-82
2022/03/05 13:48:51;;;;;;;8.02;3.70;;;;;;;;;;5016082;28;20046;-82
2022/03/05 13:51:26;;;;;;;9.88;3.35;;;;;;;;;;5011800;28;20056;-83
2022/03/05 13:53:57;;;;;;;9.98;4.32;;;;;;;;;;5018482;28;20042;-83
2022/03/05 13:56:26;;;;;;;7.07;3.78;;;;;;;;;;5021340;28;20157;-83
2022/03/05 13:58:57;;;;;;;8.07;3.22;;;;;;;;;;4980717;28;20064;-82
2022/03/05 14:01:38;;;;;;;6.93;3.10;;;;;;;;;;5020779;28;20037;-82
2022/03/05 14:04:13;;;;;;;7.65;3.97;;;;;;;;;;5018307;28;20042;-82
2022/03/05 14:06:50;;;;;;;9.68;3.72;;;;;;;;;;5014070;28;20501;-84
2022/03/05 14:09:21;;;;;;;7.20;4.05;;;;;;;;;;5011344;28;20433;-79
2022/03/05 14:12:01;;;;;;;8.40;3.75;;;;;;;;;;4981240;28;20125;-78
2022/03/05 14:14:35;;;;;;;8.23;3.67;;;;;;;;;;5011211;28;20076;-79
2022/03/05 14:17:02;;;;;;;7.32;3.50;;;;;;;;;;5012897;28;20113;-79
2022/03/05 14:19:31;;;;;;;7.38;3.83;;;;;;;;;;5016497;28;20093;-79
2022/03/05 14:22:05;;;;;;;7.20;3.63;;;;;;;;;;5010098;28;20160;-79
2022/03/05 14:24:32;;;;;;;7.93;3.85;;;;;;;;;;5006471;28;20159;-78
2022/03/05 14:27:08;;;;;;;8.55;4.07;;;;;;;;;;5015903;28;21305;-79
2022/03/05 14:29:37;;;;;;;7.72;3.97;;;;;;;;;;4993158;28;20170;-79
2022/03/05 14:32:05;;;;;;;8.18;3.85;;;;;;;;;;4990905;28;20073;-79
2022/03/05 14:34:32;;;;;;;8.65;3.63;;;;;;;;;;5007926;28;20150;-79
2022/03/05 14:37:00;;;;;;;7.75;3.60;;;;;;;;;;5013936;28;20078;-79
2022/03/05 14:39:31;;;;;;;8.98;4.00;;;;;;;;;;4997020;28;20075;-79
2022/03/05 14:41:59;;;;;;;7.93;3.45;;;;;;;;;;4992570;28;20133;-79
2022/03/05 14:44:26;;;;;;;6.93;3.95;;;;;;;;;;5009114;28;20158;-79
2022/03/05 14:46:54;;;;;;;7.95;3.45;;;;;;;;;;4998866;28;20151;-80
2022/03/05 14:49:22;;;;;;;10.25;3.80;;;;;;;;;;5011959;28;20160;-82
2022/03/05 14:51:50;;;;;;;10.20;4.22;;;;;;;;;;5012652;28;20243;-79
2022/03/05 14:54:18;;;;;;;6.10;3.38;;;;;;;;;;5019999;28;20241;-82
2022/03/05 14:56:46;;;;;;;9.77;4.35;;;;;;;;;;5013632;28;20045;-82
2022/03/05 14:59:14;;;;;;;6.95;3.70;;;;;;;;;;5015545;28;20076;-83
2022/03/05 15:01:42;;;;;;;5.97;3.20;;;;;;;;;;5011932;28;20564;-83
2022/03/05 15:04:10;;;;;;;6.72;3.53;;;;;;;;;;5011299;28;20061;-85
2022/03/05 15:06:38;;;;;;;6.65;3.40;;;;;;;;;;5013965;28;20076;-85
2022/03/05 15:09:07;;;;;;;6.75;3.40;;;;;;;;;;5016245;28;20137;-85
2022/03/05 15:11:35;;;;;;;7.70;3.63;;;;;;;;;;4997072;28;20049;-83
2022/03/05 15:14:03;;;;;;;9.60;3.20;;;;;;;;;;5012668;28;20042;-86
2022/03/05 15:16:31;;;;;;;5.80;3.45;;;;;;;;;;5016294;28;20056;-84
2022/03/05 15:18:58;;;;;;;6.97;3.63;;;;;;;;;;5012291;28;20490;-84
2022/03/05 15:21:26;;;;;;;5.25;3.17;;;;;;;;;;5013039;28;20162;-84
2022/03/05 15:23:54;;;;;;;8.73;3.65;;;;;;;;;;5026561;28;20046;-84
2022/03/05 15:26:22;;;;;;;8.48;4.10;;;;;;;;;;5003726;28;20478;-86
2022/03/05 15:28:50;;;;;;;6.93;3.58;;;;;;;;;;4993805;28;20049;-86
2022/03/05 15:31:18;;;;;;;6.22;3.35;;;;;;;;;;4983670;28;20054;-84
2022/03/05 15:33:46;;;;;;;9.80;4.40;;;;;;;;;;5016167;28;20060;-83
2022/03/05 15:36:15;;;;;;;7.20;3.60;;;;;;;;;;5015939;28;20404;-85
2022/03/05 15:38:43;;;;;;;9.05;3.97;;;;;;;;;;5010642;28;20136;-79
2022/03/05 15:41:11;;;;;;;8.75;4.90;;;;;;;;;;5009298;28;20137;-79
2022/03/05 15:43:39;;;;;;;6.78;3.70;;;;;;;;;;5012797;28;20052;-78
2022/03/05 15:46:11;;;;;;;6.15;3.08;;;;;;;;;;5009873;28;20661;-78
2022/03/05 15:48:40;;;;;;;8.23;3.75;;;;;;;;;;5010136;28;20053;-79
2022/03/05 15:51:11;;;;;;;5.45;3.17;;;;;;;;;;4993644;28;20140;-78
2022/03/05 15:53:39;;;;;;;6.03;3.05;;;;;;;;;;5010386;28;20469;-78
2022/03/05 15:56:08;;;;;;;10.25;4.03;;;;;;;;;;5014037;28;20073;-78
2022/03/05 15:58:36;;;;;;;6.82;3.35;;;;;;;;;;5003043;28;20065;-78
2022/03/05 16:01:06;;;;;;;7.60;4.22;;;;;;;;;;5004202;28;20053;-78
2022/03/05 16:03:35;;;;;;;7.95;4.38;;;;;;;;;;5007438;28;20050;-80
2022/03/05 16:06:04;;;;;;;8.50;3.47;;;;;;;;;;5011919;28;20050;-79
2022/03/05 16:08:32;;;;;;;6.43;3.28;;;;;;;;;;4997409;28;20053;-79
2022/03/05 16:11:00;;;;;;;7.70;3.30;;;;;;;;;;5012222;28;20141;-78
2022/03/05 16:13:28;;;;;;;8.10;3.38;;;;;;;;;;5011275;28;20045;-80
2022/03/05 16:15:56;;;;;;;8.40;3.50;;;;;;;;;;5006562;28;20052;-79
2022/03/05 16:18:24;;;;;;;7.18;3.22;;;;;;;;;;4999627;28;20061;-78
2022/03/05 16:20:53;;;;;;;7.97;4.13;;;;;;;;;;5002136;28;20136;-77
2022/03/05 16:23:20;;;;;;;7.00;3.15;;;;;;;;;;5007065;28;20412;-78
2022/03/05 16:25:48;;;;;;;6.43;2.60;;;;;;;;;;5004295;28;20057;-78
2022/03/05 16:28:16;;;;;;;6.45;3.20;;;;;;;;;;5003837;28;20053;-78
2022/03/05 16:30:44;;;;;;;6.55;2.92;;;;;;;;;;4989057;28;20553;-78
2022/03/05 16:33:12;;;;;;;5.65;3.00;;;;;;;;;;5000174;28;20049;-79
2022/03/05 16:35:41;;;;;;;5.82;3.45;;;;;;;;;;5000478;28;20077;-78
2022/03/05 16:38:08;;;;;;;7.47;2.90;;;;;;;;;;4987053;28;20053;-78
2022/03/05 16:40:36;;;;;;;6.28;2.50;;;;;;;;;;4997640;28;20607;-78
2022/03/05 16:43:04;;;;;;;6.47;2.53;;;;;;;;;;5002204;28;20148;-78
2022/03/05 16:45:31;;;;;;;6.68;2.92;;;;;;;;;;5002006;28;20401;-78
2022/03/05 16:47:59;;;;;;;4.43;2.22;;;;;;;;;;5006320;28;20052;-82
2022/03/05 16:50:27;;;;;;;7.75;3.15;;;;;;;;;;5014080;28;20046;-82
2022/03/05 16:52:55;;;;;;;5.18;2.47;;;;;;;;;;5014622;28;20046;-83
2022/03/05 16:55:23;;;;;;;5.13;2.60;;;;;;;;;;5009166;28;20160;-83
2022/03/05 16:57:51;;;;;;;5.40;2.45;;;;;;;;;;5011499;28;20046;-84
2022/03/05 17:00:19;;;;;;;7.18;2.80;;;;;;;;;;5011148;28;20045;-82
2022/03/05 17:02:47;;;;;;;9.20;2.17;;;;;;;;;;5008889;28;21089;-84
2022/03/05 17:05:16;;;;;;;7.07;3.38;;;;;;;;;;4997192;28;20049;-83
2022/03/05 17:07:46;;;;;;;8.13;2.25;;;;;;;;;;5009401;28;20266;-85
2022/03/05 17:10:16;;;;;;;8.18;2.65;;;;;;;;;;4993333;28;20055;-84
2022/03/05 17:12:46;;;;;;;6.03;2.60;;;;;;;;;;5004458;28;20898;-84
2022/03/05 17:15:17;;;;;;;5.82;2.47;;;;;;;;;;5012678;28;20057;-82
2022/03/05 17:17:46;;;;;;;3.92;2.00;;;;;;;;;;4992928;28;20050;-82
2022/03/05 17:20:14;;;;;;;3.70;2.20;;;;;;;;;;5016650;28;20056;-82
2022/03/05 17:22:41;;;;;;;4.03;2.10;;;;;;;;;;5010141;28;20441;-84
2022/03/05 17:25:11;;;;;;;6.63;1.92;;;;;;;;;;4999280;28;20066;-82
2022/03/05 17:27:39;;;;;;;5.75;2.50;;;;;;;;;;5022535;28;20068;-83
2022/03/05 17:30:09;;;;;;;6.20;2.90;;;;;;;;;;5016379;28;20071;-82
2022/03/05 17:32:37;;;;;;;7.10;2.72;;;;;;;;;;5016299;28;20073;-83
2022/03/05 17:35:06;;;;;;;5.47;2.20;;;;;;;;;;5004173;28;20052;-83
2022/03/05 17:37:33;;;;;;;4.97;2.08;;;;;;;;;;5017359;28;20104;-82
2022/03/05 17:40:01;;;;;;;6.32;2.40;;;;;;;;;;5015393;28;20046;-84
2022/03/05 17:42:29;;;;;;;5.20;2.10;;;;;;;;;;5008488;28;20050;-83
2022/03/05 17:44:57;;;;;;;4.82;2.25;;;;;;;;;;4994918;28;20101;-84
2022/03/05 17:47:25;;;;;;;7.43;2.92;;;;;;;;;;4993526;28;20801;-85
2022/03/05 17:49:53;;;;;;;7.25;3.00;;;;;;;;;;4996676;28;20042;-84
2022/03/05 17:52:21;;;;;;;4.18;2.10;;;;;;;;;;4994160;28;20046;-84
2022/03/05 17:54:56;;;;;;;5.00;2.35;;;;;;;;;;5012308;28;20123;-84
2022/03/05 17:57:25;;;;;;;6.60;3.17;;;;;;;;;;4999364;28;20041;-84
2022/03/05 17:59:53;;;;;;;7.88;2.67;;;;;;;;;;5009857;28;20064;-84
2022/03/05 18:02:23;;;;;;;12.27;4.20;;;;;;;;;;5013944;28;20048;-81
2022/03/05 18:04:51;;;;;;;7.47;3.13;;;;;;;;;;5012974;28;20038;-83
2022/03/05 18:07:19;;;;;;;6.72;3.38;;;;;;;;;;5021034;28;20597;-82
2022/03/05 18:09:49;;;;;;;8.32;3.58;;;;;;;;;;5006453;28;20050;-83
2022/03/05 18:12:17;;;;;;;9.20;4.18;;;;;;;;;;5016744;28;20459;-83
2022/03/05 18:14:45;;;;;;;9.13;4.10;;;;;;;;;;5017126;28;20038;-82
2022/03/05 18:17:13;;;;;;;4.80;2.88;;;;;;;;;;5016188;28;20046;-84
2022/03/05 18:19:41;;;;;;;8.63;3.35;;;;;;;;;;5019688;28;20060;-84
2022/03/05 18:22:09;;;;;;;7.22;2.15;;;;;;;;;;5017616;28;20137;-83
2022/03/05 18:24:37;;;;;;;5.80;2.45;;;;;;;;;;5018802;28;20046;-83
2022/03/05 18:27:05;;;;;;;5.20;2.47;;;;;;;;;;5001149;28;20051;-83
2022/03/05 18:29:33;;;;;;;5.07;2.30;;;;;;;;;;5011979;28;20455;-86
2022/03/05 18:32:35;;;;;;;6.75;3.10;;;;;;;;;;4992181;28;20417;-86
2022/03/05 18:35:19;;;;;;;7.45;2.97;;;;;;;;;;5015967;28;20052;-85
2022/03/05 18:38:20;;;;;;;5.45;2.88;;;;;;;;;;4997100;28;20053;-86
2022/03/05 18:41:04;;;;;;;4.78;2.50;;;;;;;;;;4998632;28;20058;-85
2022/03/05 18:43:31;;;;;;;7.88;2.70;;;;;;;;;;5008554;28;20116;-85
2022/03/05 18:46:14;;;;;;;6.10;2.33;;;;;;;;;;4995675;28;20149;-85
2022/03/05 18:48:43;;;;;;;8.35;2.65;;;;;;;;;;5016631;28;20049;-85
2022/03/05 18:51:25;;;;;;;8.27;2.65;;;;;;;;;;4996231;28;20046;-84
2022/03/05 18:53:53;;;;;;;5.35;2.70;;;;;;;;;;5012393;28;20045;-84
2022/03/05 18:56:21;;;;;;;6.35;2.58;;;;;;;;;;5003067;28;20045;-83
2022/03/05 18:58:49;;;;;;;9.82;3.03;;;;;;;;;;4991486;28;20050;-83
2022/03/05 19:01:17;;;;;;;6.00;3.17;;;;;;;;;;5014598;28;20057;-84
2022/03/05 19:03:45;;;;;;;6.15;2.50;;;;;;;;;;4997185;28;20048;-85
2022/03/05 19:06:13;;;;;;;7.57;3.10;;;;;;;;;;5002489;28;20045;-84
2022/03/05 19:08:42;;;;;;;7.72;2.90;;;;;;;;;;5017614;28;20053;-85
2022/03/05 19:11:09;;;;;;;7.13;2.72;;;;;;;;;;4999722;28;20049;-83
2022/03/05 19:13:37;;;;;;;6.07;2.47;;;;;;;;;;5014162;28;20057;-84
2022/03/05 19:16:05;;;;;;;8.15;3.35;;;;;;;;;;5015428;28;20042;-82
2022/03/05 19:18:33;;;;;;;8.35;3.40;;;;;;;;;;5019098;28;20056;-82
2022/03/05 19:21:01;;;;;;;7.80;3.15;;;;;;;;;;4996303;28;20046;-84
2022/03/05 19:23:29;;;;;;;10.80;4.70;;;;;;;;;;4997733;28;20481;-82
2022/03/05 19:25:57;;;;;;;11.15;4.22;;;;;;;;;;5014206;28;20061;-82
2022/03/05 19:28:25;;;;;;;10.02;3.92;;;;;;;;;;4995333;28;20133;-82
2022/03/05 19:30:53;;;;;;;9.95;3.83;;;;;;;;;;5018022;28;20046;-82
2022/03/05 19:33:21;;;;;;;6.90;3.53;;;;;;;;;;4996921;28;20054;-81
2022/03/05 19:35:49;;;;;;;7.93;3.08;;;;;;;;;;5012372;28;20053;-80
2022/03/05 19:38:17;;;;;;;9.77;3.78;;;;;;;;;;5015093;28;20045;-80
2022/03/05 19:40:46;;;;;;;8.25;3.63;;;;;;;;;;5012100;28;20481;-80
2022/03/05 19:43:14;;;;;;;8.13;3.20;;;;;;;;;;5018632;28;20058;-79
2022/03/05 19:45:42;;;;;;;6.45;2.95;;;;;;;;;;5016079;28;20050;-80
2022/03/05 19:48:10;;;;;;;7.80;2.80;;;;;;;;;;5019080;28;20042;-81
2022/03/05 19:50:37;;;;;;;5.90;3.10;;;;;;;;;;5017744;28;20038;-80
2022/03/05 19:53:06;;;;;;;7.43;3.08;;;;;;;;;;4993195;28;20052;-82
2022/03/05 19:55:34;;;;;;;6.50;3.47;;;;;;;;;;4998651;28;20046;-81
2022/03/05 19:58:04;;;;;;;6.53;3.25;;;;;;;;;;5019077;28;20042;-80
2022/03/05 20:00:31;;;;;;;8.73;2.75;;;;;;;;;;5021379;28;20073;-81
2022/03/05 20:03:00;;;;;;;7.18;3.50;;;;;;;;;;4982269;28;20461;-81
2022/03/05 20:05:28;;;;;;;11.18;3.45;;;;;;;;;;4994672;28;20034;-80
2022/03/05 20:07:56;;;;;;;8.40;3.63;;;;;;;;;;4997154;28;20052;-81
2022/03/05 20:10:25;;;;;;;5.47;2.83;;;;;;;;;;5015881;28;20552;-81
2022/03/05 20:12:54;;;;;;;8.50;3.53;;;;;;;;;;5015447;28;20042;-79
2022/03/05 20:15:21;;;;;;;7.07;3.55;;;;;;;;;;5019032;28;20528;-79
2022/03/05 20:17:52;;;;;;;7.55;3.38;;;;;;;;;;4999747;28;20050;-79
2022/03/05 20:20:20;;;;;;;8.07;3.33;;;;;;;;;;5017193;28;20041;-79
2022/03/05 20:22:47;;;;;;;7.43;3.20;;;;;;;;;;5013175;28;20049;-79
2022/03/05 20:25:19;;;;;;;6.35;2.90;;;;;;;;;;5012747;28;20137;-78